createdAt,value
2022-11-04T00:02:17.314Z,72.45
2022-11-04T00:04:46.846Z,72.67
2022-11-04T00:07:28.515Z,72.46
2022-11-04T00:09:57.128Z,72.32
2022-11-04T00:12:27.039Z,72.40
2022-11-04T00:15:15.261Z,72.66
2022-11-04T00:17:42.140Z,72.21
2022-11-04T00:20:30.081Z,72.33
2022-11-04T00:23:30.389Z,72.30
2022-11-04T00:26:17.228Z,72.37
2022-11-04T00:28:45.333Z,72.19
2022-11-04T00:31:34.217Z,72.67
2022-11-04T00:34:02.137Z,72.32
2022-11-04T00:36:31.220Z,72.13
2022-11-04T00:38:59.487Z,72.28
2022-11-04T00:41:27.822Z,72.59
2022-11-04T00:43:57.498Z,72.60
2022-11-04T00:46:25.742Z,72.19
2022-11-04T00:48:56.711Z,72.46
2022-11-04T00:51:25.280Z,72.68
2022-11-04T00:53:54.812Z,72.62
2022-11-04T00:56:23.055Z,72.56
2022-11-04T00:58:51.086Z,72.81
2022-11-04T01:01:19.756Z,73.02
2022-11-04T01:03:49.177Z,73.39
2022-11-04T01:06:27.825Z,73.24
2022-11-04T01:09:01.780Z,73.88
2022-11-04T01:11:31.352Z,74.44
2022-11-04T01:13:59.444Z,74.24
2022-11-04T01:19:01.089Z,75.42
2022-11-04T01:21:29.365Z,76.33
2022-11-04T01:23:57.661Z,75.73
2022-11-04T01:26:30.131Z,75.60
2022-11-04T01:28:58.918Z,75.91
2022-11-04T01:31:28.542Z,75.70
2022-11-04T01:34:07.759Z,75.55
2022-11-04T01:36:52.171Z,75.80
2022-11-04T01:39:19.976Z,75.71
2022-11-04T01:42:07.696Z,75.54
2022-11-04T01:45:02.538Z,76.04
2022-11-04T01:47:33.554Z,76.85
2022-11-04T01:50:05.984Z,75.86
2022-11-04T01:52:37.966Z,76.14
2022-11-04T01:55:14.596Z,75.66
2022-11-04T01:57:48.045Z,76.04
2022-11-04T02:00:17.246Z,75.71
2022-11-04T02:03:04.404Z,75.84
2022-11-04T02:05:32.333Z,75.49
2022-11-04T02:08:02.694Z,75.40
2022-11-04T02:10:37.585Z,75.78
2022-11-04T02:13:13.545Z,75.23
2022-11-04T02:15:53.554Z,75.45
2022-11-04T02:18:37.417Z,75.20
2022-11-04T02:21:36.788Z,75.36
2022-11-04T02:24:32.873Z,75.03
2022-11-04T02:27:28.329Z,75.22
2022-11-04T02:30:17.021Z,75.38
2022-11-04T02:33:09.880Z,75.30
2022-11-04T02:35:48.721Z,74.62
2022-11-04T02:38:31.670Z,75.08
2022-11-04T02:41:05.566Z,74.65
2022-11-04T02:44:03.487Z,74.75
2022-11-04T02:46:38.986Z,74.52
2022-11-04T02:49:13.246Z,74.82
2022-11-04T02:51:49.313Z,74.67
2022-11-04T02:54:23.310Z,74.90
2022-11-04T02:56:54.218Z,74.67
2022-11-04T02:59:36.293Z,74.83
2022-11-04T03:02:10.191Z,75.01
2022-11-04T03:04:44.916Z,74.85
2022-11-04T03:07:16.300Z,75.23
2022-11-04T03:09:50.590Z,75.46
2022-11-04T03:12:20.635Z,76.63
2022-11-04T03:14:53.790Z,75.09
2022-11-04T03:17:34.993Z,75.83
2022-11-04T03:20:06.887Z,75.36
2022-11-04T03:22:36.957Z,75.20
2022-11-04T03:25:06.473Z,75.42
2022-11-04T03:27:40.144Z,74.84
2022-11-04T03:30:13.264Z,75.08
2022-11-04T03:32:52.722Z,74.76
2022-11-04T03:35:21.194Z,74.61
2022-11-04T03:37:58.031Z,74.72
2022-11-04T03:40:27.389Z,74.70
2022-11-04T03:43:06.914Z,74.83
2022-11-04T03:45:34.956Z,75.07
2022-11-04T03:48:07.831Z,74.87
2022-11-04T03:50:42.509Z,74.58
2022-11-04T03:53:13.311Z,74.30
2022-11-04T03:56:08.245Z,74.70
2022-11-04T03:58:59.634Z,74.31
2022-11-04T04:01:37.053Z,75.32
2022-11-04T04:04:14.297Z,74.75
2022-11-04T04:06:44.442Z,74.93
2022-11-04T04:09:19.025Z,74.61
2022-11-04T04:11:57.077Z,74.44
2022-11-04T04:14:48.469Z,74.91
2022-11-04T04:17:20.797Z,74.45
2022-11-04T04:19:55.131Z,75.02
2022-11-04T04:22:26.132Z,74.28
2022-11-04T04:25:15.247Z,74.08
2022-11-04T04:27:45.148Z,74.31
2022-11-04T04:30:15.488Z,74.66
2022-11-04T04:32:46.022Z,73.90
2022-11-04T04:35:38.241Z,74.66
2022-11-04T04:38:27.318Z,73.95
2022-11-04T04:41:18.936Z,74.71
2022-11-04T04:44:03.961Z,74.35
2022-11-04T04:46:33.235Z,74.46
2022-11-04T04:49:06.154Z,74.49
2022-11-04T04:51:40.274Z,74.38
2022-11-04T04:54:08.372Z,74.10
2022-11-04T04:56:36.211Z,73.95
2022-11-04T04:59:04.512Z,74.29
2022-11-04T05:01:32.550Z,74.80
2022-11-04T05:04:00.428Z,74.48
2022-11-04T05:06:30.516Z,74.66
2022-11-04T05:08:59.806Z,74.36
2022-11-04T05:11:30.510Z,74.64
2022-11-04T05:13:58.337Z,75.00
2022-11-04T05:16:26.358Z,74.77
2022-11-04T05:18:55.122Z,75.38
2022-11-04T05:21:23.082Z,75.23
2022-11-04T05:23:50.920Z,75.10
2022-11-04T05:26:20.774Z,75.05
2022-11-04T05:28:48.715Z,74.83
2022-11-04T05:31:18.530Z,74.96
2022-11-04T05:33:46.477Z,75.03
2022-11-04T05:36:16.018Z,75.26
2022-11-04T05:38:44.842Z,75.57
2022-11-04T05:41:25.665Z,75.27
2022-11-04T05:43:55.823Z,75.35
2022-11-04T05:46:24.135Z,75.53
2022-11-04T05:48:52.492Z,75.62
2022-11-04T05:51:22.365Z,75.52
2022-11-04T05:53:50.263Z,75.68
2022-11-04T05:56:21.360Z,75.64
2022-11-04T05:58:50.576Z,75.88
2022-11-04T06:01:28.785Z,75.26
2022-11-04T06:03:57.298Z,75.03
2022-11-04T06:06:27.488Z,75.47
2022-11-04T06:09:20.866Z,75.62
2022-11-04T06:11:48.740Z,75.85
2022-11-04T06:14:18.860Z,74.73
2022-11-04T06:16:48.414Z,75.03
2022-11-04T06:19:16.490Z,75.63
2022-11-04T06:21:44.545Z,74.96
2022-11-04T06:24:12.820Z,74.98
2022-11-04T06:26:41.201Z,74.52
2022-11-04T06:29:09.946Z,74.71
2022-11-04T06:31:37.723Z,74.88
2022-11-04T06:34:07.002Z,74.48
2022-11-04T06:36:34.999Z,74.15
2022-11-04T06:39:04.955Z,74.49
2022-11-04T06:41:33.259Z,74.39
2022-11-04T06:44:03.006Z,73.49
2022-11-04T06:46:34.949Z,73.15
2022-11-04T06:49:02.925Z,73.03
2022-11-04T06:51:32.437Z,74.18
2022-11-04T06:54:00.216Z,73.07
2022-11-04T06:56:28.292Z,73.79
2022-11-04T06:58:56.873Z,73.78
2022-11-04T07:01:26.964Z,73.32
2022-11-04T07:04:02.047Z,73.59
2022-11-04T07:06:31.328Z,73.87
2022-11-04T07:09:02.636Z,73.65
2022-11-04T07:11:33.259Z,72.67
2022-11-04T07:14:01.170Z,72.85
2022-11-04T07:16:28.971Z,73.42
2022-11-04T07:18:56.999Z,73.19
2022-11-04T07:21:24.893Z,73.57
2022-11-04T07:23:52.907Z,73.44
2022-11-04T07:26:22.090Z,73.28
2022-11-04T07:28:50.184Z,73.12
2022-11-04T07:31:19.545Z,73.19
2022-11-04T07:33:50.145Z,73.17
2022-11-04T07:36:19.017Z,72.90
2022-11-04T07:38:49.934Z,72.55
2022-11-04T07:41:18.566Z,72.53
2022-11-04T07:43:51.443Z,72.65
2022-11-04T07:46:21.895Z,72.72
2022-11-04T07:48:49.719Z,72.87
2022-11-04T07:51:20.949Z,72.67
2022-11-04T07:53:48.801Z,72.50
2022-11-04T07:56:16.689Z,72.84
2022-11-04T07:58:44.537Z,72.24
2022-11-04T08:01:16.406Z,72.40
2022-11-04T08:03:44.699Z,72.81
2022-11-04T08:06:15.457Z,72.63
2022-11-04T08:08:46.247Z,72.34
2022-11-04T08:11:17.978Z,72.20
2022-11-04T08:13:47.184Z,72.17
2022-11-04T08:16:18.399Z,72.51
2022-11-04T08:18:48.338Z,72.19
2022-11-04T08:21:19.448Z,72.22
2022-11-04T08:23:48.218Z,72.29
2022-11-04T08:26:18.732Z,72.75
2022-11-04T08:28:47.668Z,72.35
2022-11-04T08:31:21.723Z,72.55
2022-11-04T08:33:49.517Z,72.20
2022-11-04T08:36:22.690Z,72.47
2022-11-04T08:38:50.447Z,71.89
2022-11-04T08:41:24.438Z,72.15
2022-11-04T08:43:56.803Z,72.04
2022-11-04T08:46:26.020Z,72.16
2022-11-04T08:48:54.147Z,72.25
2022-11-04T08:51:24.197Z,72.13
2022-11-04T08:53:52.265Z,71.92
2022-11-04T08:56:21.563Z,71.91
2022-11-04T08:58:50.390Z,72.40
2022-11-04T09:01:21.288Z,71.93
2022-11-04T09:03:56.514Z,71.53
2022-11-04T09:06:27.935Z,71.62
2022-11-04T09:08:58.303Z,71.72
2022-11-04T09:11:26.129Z,71.50
2022-11-04T09:13:59.496Z,72.36
2022-11-04T09:16:29.113Z,72.37
2022-11-04T09:19:01.010Z,72.20
2022-11-04T09:21:29.824Z,72.79
2022-11-04T09:23:58.270Z,72.63
2022-11-04T09:26:29.213Z,72.05
2022-11-04T09:28:58.344Z,71.72
2022-11-04T09:31:32.214Z,71.42
2022-11-04T09:34:01.472Z,71.66
2022-11-04T09:36:32.314Z,71.60
2022-11-04T09:39:00.147Z,71.70
2022-11-04T09:42:06.545Z,72.00
2022-11-04T09:45:14.893Z,71.60
2022-11-04T09:47:35.997Z,71.44
2022-11-04T09:50:11.332Z,71.58
2022-11-04T09:52:45.334Z,71.52
2022-11-04T09:55:22.210Z,71.38
2022-11-04T09:57:55.877Z,71.69
2022-11-04T10:00:33.656Z,71.08
2022-11-04T10:03:21.863Z,71.39
2022-11-04T10:06:14.949Z,71.40
2022-11-04T10:09:10.098Z,71.33
2022-11-04T10:11:53.362Z,71.00
2022-11-04T10:14:41.850Z,70.88
2022-11-04T10:17:35.390Z,71.15
2022-11-04T10:20:21.064Z,70.93
2022-11-04T10:23:03.365Z,70.96
2022-11-04T10:25:46.864Z,71.27
2022-11-04T10:28:26.271Z,71.56
2022-11-04T10:30:55.905Z,71.90
2022-11-04T10:33:30.195Z,71.17
2022-11-04T10:35:59.561Z,70.64
2022-11-04T10:38:34.835Z,71.55
2022-11-04T10:41:07.236Z,71.64
2022-11-04T10:43:38.532Z,70.86
2022-11-04T10:46:27.994Z,71.03
2022-11-04T10:49:06.553Z,70.96
2022-11-04T10:51:34.376Z,70.68
2022-11-04T10:54:11.279Z,70.92
2022-11-04T10:56:44.155Z,70.90
2022-11-04T10:59:24.708Z,69.87
2022-11-04T11:01:54.576Z,69.52
2022-11-04T11:04:41.372Z,69.41
2022-11-04T11:07:11.457Z,69.08
2022-11-04T11:09:54.101Z,69.43
2022-11-04T11:12:50.184Z,69.81
2022-11-04T11:15:30.296Z,69.75
2022-11-04T11:18:02.309Z,70.42
2022-11-04T11:20:32.511Z,70.16
2022-11-04T11:23:04.873Z,70.18
2022-11-04T11:25:36.040Z,69.77
2022-11-04T11:28:07.403Z,70.00
2022-11-04T11:30:57.351Z,69.63
2022-11-04T11:33:28.062Z,69.70
2022-11-04T11:36:00.004Z,69.37
2022-11-04T11:38:29.617Z,69.36
2022-11-04T11:41:24.457Z,69.18
2022-11-04T11:43:56.342Z,69.38
2022-11-04T11:46:26.049Z,69.02
2022-11-04T11:49:00.979Z,69.13
2022-11-04T11:51:32.467Z,68.99
2022-11-04T11:54:16.556Z,68.93
2022-11-04T11:57:12.761Z,69.64
2022-11-04T12:02:46.980Z,69.32
2022-11-04T12:11:16.701Z,69.29
2022-11-04T12:13:53.686Z,69.55
2022-11-04T12:16:30.234Z,69.68
2022-11-04T12:19:14.508Z,69.37
2022-11-04T12:21:48.618Z,69.78
2022-11-04T12:24:28.645Z,68.47
2022-11-04T12:27:08.081Z,69.77
2022-11-04T12:29:54.869Z,70.02
2022-11-04T12:32:31.034Z,69.89
2022-11-04T12:35:12.180Z,70.06
2022-11-04T12:37:52.374Z,69.85
2022-11-04T12:40:30.112Z,70.08
2022-11-04T12:43:09.596Z,70.05
2022-11-04T12:45:49.705Z,69.84
2022-11-04T12:48:34.372Z,69.68
2022-11-04T12:51:09.414Z,69.05
2022-11-04T12:54:12.768Z,69.19
2022-11-04T12:56:41.656Z,69.25
2022-11-04T12:59:39.002Z,68.70
2022-11-04T13:02:18.908Z,68.32
2022-11-04T13:05:00.253Z,68.85
2022-11-04T13:07:33.012Z,68.85
2022-11-04T13:10:07.066Z,68.77
2022-11-04T13:12:40.673Z,68.61
2022-11-04T13:15:20.126Z,68.74
2022-11-04T13:17:54.103Z,68.70
2022-11-04T13:20:30.729Z,68.76
2022-11-04T13:23:04.125Z,69.13
2022-11-04T13:25:35.841Z,68.88
2022-11-04T13:28:04.972Z,69.03
2022-11-04T13:30:40.610Z,69.45
2022-11-04T13:33:22.441Z,69.47
2022-11-04T13:35:58.227Z,69.43
2022-11-04T13:38:32.803Z,69.14
2022-11-04T13:41:21.560Z,69.39
2022-11-04T13:43:54.486Z,69.56
2022-11-04T13:46:30.475Z,69.70
2022-11-04T13:49:03.876Z,69.75
2022-11-04T13:51:37.887Z,70.00
2022-11-04T13:54:07.755Z,70.23
2022-11-04T13:56:38.456Z,70.45
2022-11-04T13:59:23.584Z,70.03
2022-11-04T14:02:26.707Z,70.43
2022-11-04T14:04:57.783Z,70.04
2022-11-04T14:08:13.402Z,70.37
2022-11-04T14:10:46.695Z,70.77
2022-11-04T14:13:46.297Z,70.64
2022-11-04T14:16:44.118Z,70.31
2022-11-04T14:19:57.543Z,70.61
2022-11-04T14:22:35.289Z,70.64
2022-11-04T14:25:19.628Z,70.71
2022-11-04T14:27:49.734Z,70.44
2022-11-04T14:30:35.159Z,70.97
2022-11-04T14:33:07.694Z,71.17
2022-11-04T14:35:38.917Z,71.11
2022-11-04T14:38:30.867Z,71.24
2022-11-04T14:41:24.424Z,71.04
2022-11-04T14:43:56.730Z,71.22
2022-11-04T14:46:27.542Z,71.14
2022-11-04T14:49:01.127Z,70.97
2022-11-04T14:51:34.288Z,70.88
2022-11-04T14:54:09.223Z,70.93
2022-11-04T14:56:37.098Z,70.75
2022-11-04T14:59:06.901Z,70.60
2022-11-04T15:01:41.561Z,70.50
2022-11-04T15:04:19.254Z,70.58
2022-11-04T15:06:55.847Z,70.57
2022-11-04T15:09:27.652Z,70.99
2022-11-04T15:12:23.621Z,70.77
2022-11-04T15:14:52.494Z,71.17
2022-11-04T15:17:23.442Z,70.67
2022-11-04T15:19:54.706Z,70.85
2022-11-04T15:22:25.964Z,71.19
2022-11-04T15:24:56.758Z,71.22
2022-11-04T15:27:29.581Z,71.91
2022-11-04T15:30:00.564Z,71.88
2022-11-04T15:32:28.871Z,72.44
2022-11-04T15:34:59.589Z,71.97
2022-11-04T15:37:36.681Z,72.53
2022-11-04T15:40:08.238Z,72.60
2022-11-04T15:42:43.068Z,72.22
2022-11-04T15:45:38.546Z,72.14
2022-11-04T15:48:26.062Z,72.78
2022-11-04T15:51:06.987Z,72.58
2022-11-04T15:53:47.991Z,72.22
2022-11-04T15:56:19.000Z,72.91
2022-11-04T15:58:47.802Z,72.34
2022-11-04T16:01:16.868Z,73.14
2022-11-04T16:03:51.327Z,73.10
2022-11-04T16:06:19.261Z,73.00
2022-11-04T16:09:02.178Z,73.39
2022-11-04T16:11:31.485Z,72.56
2022-11-04T16:14:23.002Z,72.92
2022-11-04T16:16:52.867Z,72.79
2022-11-04T16:19:26.742Z,72.99
2022-11-04T16:22:00.744Z,72.80
2022-11-04T16:24:32.818Z,73.09
2022-11-04T16:27:28.608Z,73.00
2022-11-04T16:30:13.116Z,72.48
2022-11-04T16:32:42.102Z,72.87
2022-11-04T16:35:28.862Z,72.29
2022-11-04T16:37:57.309Z,72.75
2022-11-04T16:40:34.996Z,72.53
2022-11-04T16:43:04.539Z,73.02
2022-11-04T16:45:37.941Z,72.85
2022-11-04T16:48:06.471Z,73.04
2022-11-04T16:50:34.377Z,73.35
2022-11-04T16:53:03.680Z,73.57
2022-11-04T16:55:34.473Z,73.68
2022-11-04T16:58:05.802Z,73.51
2022-11-04T17:00:34.460Z,72.96
2022-11-04T17:03:05.455Z,73.14
2022-11-04T17:05:36.508Z,73.53
2022-11-04T17:08:06.206Z,73.00
2022-11-04T17:10:37.111Z,73.04
2022-11-04T17:13:06.615Z,73.82
2022-11-04T17:15:39.276Z,73.58
2022-11-04T17:18:16.329Z,73.73
2022-11-04T17:20:45.923Z,73.65
2022-11-04T17:23:15.255Z,73.81
2022-11-04T17:25:43.862Z,74.04
2022-11-04T17:28:14.032Z,73.78
2022-11-04T17:30:42.319Z,74.26
2022-11-04T17:33:13.879Z,73.77
2022-11-04T17:35:42.987Z,73.83
2022-11-04T17:38:14.662Z,74.09
2022-11-04T17:40:56.691Z,74.25
2022-11-04T17:43:43.627Z,73.67
2022-11-04T17:46:26.081Z,73.97
2022-11-04T17:48:57.406Z,73.88
2022-11-04T17:51:28.553Z,73.05
2022-11-04T17:53:56.626Z,74.03
2022-11-04T17:56:25.592Z,74.06
2022-11-04T17:59:04.029Z,74.10
2022-11-04T18:01:36.664Z,73.78
2022-11-04T18:04:07.324Z,74.36
2022-11-04T18:06:39.675Z,74.27
2022-11-04T18:09:11.103Z,74.59
2022-11-04T18:11:56.913Z,74.50
2022-11-04T18:14:28.684Z,74.46
2022-11-04T18:17:02.712Z,74.72
2022-11-04T18:19:31.668Z,74.21
2022-11-04T18:22:08.593Z,74.64
2022-11-04T18:24:36.376Z,75.17
2022-11-04T18:27:04.533Z,74.34
2022-11-04T18:29:33.665Z,75.01
2022-11-04T18:32:04.837Z,74.71
2022-11-04T18:34:33.944Z,74.87
2022-11-04T18:37:08.162Z,74.66
2022-11-04T18:39:37.294Z,75.51
2022-11-04T18:42:05.690Z,74.77
2022-11-04T18:44:34.992Z,75.20
2022-11-04T18:47:03.251Z,74.88
2022-11-04T18:52:12.986Z,73.99
2022-11-04T18:54:43.673Z,74.12
2022-11-04T18:57:12.048Z,74.33
2022-11-04T18:59:41.329Z,74.61
2022-11-04T19:02:16.879Z,74.36
2022-11-04T19:04:44.807Z,73.51
2022-11-04T19:07:19.446Z,74.50
2022-11-04T19:09:48.181Z,74.08
2022-11-04T19:12:37.009Z,74.01
2022-11-04T19:15:07.786Z,74.15
2022-11-04T19:17:39.659Z,74.26
2022-11-04T19:20:12.114Z,74.14
2022-11-04T19:22:41.212Z,74.33
2022-11-04T19:25:12.269Z,75.01
2022-11-04T19:27:40.134Z,74.96
2022-11-04T19:30:10.454Z,75.31
2022-11-04T19:32:38.246Z,74.92
2022-11-04T19:35:06.858Z,75.21
2022-11-04T19:37:34.661Z,74.89
2022-11-04T19:40:04.689Z,75.16
2022-11-04T19:42:51.967Z,74.66
2022-11-04T19:45:22.322Z,75.68
2022-11-04T19:47:50.262Z,74.57
2022-11-04T19:50:19.814Z,74.92
2022-11-04T19:52:47.681Z,75.02
2022-11-04T19:55:15.841Z,74.21
2022-11-04T19:57:49.960Z,74.20
2022-11-04T20:00:23.812Z,74.40
2022-11-04T20:02:52.586Z,73.61
2022-11-04T20:05:26.967Z,74.30
2022-11-04T20:07:55.072Z,74.31
2022-11-04T20:10:24.414Z,73.98
2022-11-04T20:13:09.870Z,73.88
2022-11-04T20:15:42.097Z,73.76
2022-11-04T20:18:10.332Z,74.29
2022-11-04T20:20:38.427Z,73.72
2022-11-04T20:23:07.431Z,74.08
2022-11-04T20:25:35.250Z,74.50
2022-11-04T20:28:03.376Z,74.42
2022-11-04T20:30:36.567Z,74.96
2022-11-04T20:33:07.332Z,74.71
2022-11-04T20:35:35.979Z,74.68
2022-11-04T20:38:03.846Z,75.38
2022-11-04T20:40:33.873Z,75.18
2022-11-04T20:43:04.645Z,75.14
2022-11-04T20:45:32.650Z,75.40
2022-11-04T20:48:00.533Z,74.80
2022-11-04T20:50:32.418Z,75.59
2022-11-04T20:53:00.197Z,75.70
2022-11-04T20:55:29.110Z,75.23
2022-11-04T20:58:02.960Z,75.46
2022-11-04T21:00:35.168Z,75.93
2022-11-04T21:03:02.873Z,75.39
2022-11-04T21:05:32.176Z,75.39
2022-11-04T21:08:00.012Z,75.97
2022-11-04T21:10:27.774Z,75.86
2022-11-04T21:12:55.702Z,75.90
2022-11-04T21:15:41.462Z,75.98
2022-11-04T21:18:10.196Z,76.11
2022-11-04T21:20:41.872Z,75.49
2022-11-04T21:23:10.313Z,75.57
2022-11-04T21:25:42.527Z,75.54
2022-11-04T21:28:13.260Z,75.96
2022-11-04T21:30:45.362Z,75.93
2022-11-04T21:33:14.770Z,76.15
2022-11-04T21:35:44.704Z,76.06
2022-11-04T21:38:15.511Z,75.97
2022-11-04T21:40:47.238Z,76.02
2022-11-04T21:43:15.677Z,75.69
2022-11-04T21:45:43.514Z,76.14
2022-11-04T21:48:11.596Z,76.21
2022-11-04T21:50:39.466Z,75.91
2022-11-04T21:53:08.686Z,76.65
2022-11-04T21:55:39.576Z,76.41
2022-11-04T21:58:07.629Z,76.44
2022-11-04T22:00:38.889Z,76.54
2022-11-04T22:03:06.602Z,76.48
2022-11-04T22:05:34.419Z,76.72
2022-11-04T22:08:17.914Z,77.01
2022-11-04T22:10:47.085Z,76.72
2022-11-04T22:13:17.627Z,76.61
2022-11-04T22:16:02.927Z,76.75
2022-11-04T22:18:32.843Z,76.20
2022-11-04T22:21:06.973Z,76.58
2022-11-04T22:23:37.542Z,77.62
2022-11-04T22:26:08.665Z,76.94
2022-11-04T22:28:36.659Z,76.81
2022-11-04T22:31:09.067Z,76.54
2022-11-04T22:33:40.590Z,76.46
2022-11-04T22:36:09.585Z,76.06
2022-11-04T22:38:39.411Z,76.58
2022-11-04T22:41:09.912Z,77.33
2022-11-04T22:43:37.871Z,76.66
2022-11-04T22:46:09.316Z,77.10
2022-11-04T22:48:37.966Z,77.10
2022-11-04T22:51:08.005Z,76.68
2022-11-04T22:53:36.206Z,76.69
2022-11-04T22:56:05.790Z,77.07
2022-11-04T22:58:35.394Z,77.38
2022-11-04T23:01:07.879Z,76.81
2022-11-04T23:03:35.747Z,76.89
2022-11-04T23:06:05.403Z,77.08
2022-11-04T23:08:35.090Z,76.93
2022-11-04T23:11:31.255Z,77.16
2022-11-04T23:14:30.229Z,76.94
2022-11-04T23:17:19.153Z,77.31
2022-11-04T23:19:46.957Z,77.62
2022-11-04T23:22:32.629Z,77.62
2022-11-04T23:25:10.440Z,77.62
2022-11-04T23:28:02.840Z,78.03
2022-11-04T23:30:34.244Z,77.73
2022-11-04T23:33:06.871Z,77.62
2022-11-04T23:35:57.798Z,77.78
2022-11-04T23:38:26.453Z,77.36
2022-11-04T23:41:22.665Z,77.58
2022-11-04T23:43:50.515Z,77.77
2022-11-04T23:46:45.929Z,77.85
2022-11-04T23:49:31.617Z,78.04
2022-11-04T23:52:19.256Z,78.07
2022-11-04T23:55:04.490Z,78.05
2022-11-04T23:57:50.117Z,78.13
